Time;durP1;ratioP1;P1;durP2;ratioP2;P2;SDS_P1;SDS_P2;PMS_P1;PMS_P2;Temp;Humidity;BMP_temperature;BMP_pressure;BME280_temperature;BME280_humidity;BME280_pressure;Samples;Min_cycle;Max_cycle;Signal;HPM_P1;HPM_P2
2024/03/22 00:01:45;;;;;;;25.17;15.85;;;;;;;;;;4997174;28;20185;-58
2024/03/22 00:04:13;;;;;;;29.08;17.08;;;;;;;;;;5003626;28;20058;-59
2024/03/22 00:06:39;;;;;;;24.17;14.88;;;;;;;;;;5017200;28;20413;-56
2024/03/22 00:09:07;;;;;;;26.05;14.63;;;;;;;;;;5017912;28;20428;-60
2024/03/22 00:11:33;;;;;;;25.83;14.75;;;;;;;;;;5007592;28;20144;-58
2024/03/22 00:14:00;;;;;;;23.52;14.57;;;;;;;;;;5003877;28;20058;-59
2024/03/22 00:16:26;;;;;;;24.58;14.75;;;;;;;;;;5009270;28;20045;-56
2024/03/22 00:18:54;;;;;;;22.90;14.45;;;;;;;;;;5011014;28;20153;-57
2024/03/22 00:21:21;;;;;;;22.42;14.15;;;;;;;;;;5008943;28;20058;-56
2024/03/22 00:23:48;;;;;;;27.05;14.80;;;;;;;;;;5007967;28;20042;-52
2024/03/22 00:26:14;;;;;;;25.95;16.15;;;;;;;;;;5004640;28;20064;-55
2024/03/22 00:28:42;;;;;;;29.15;17.33;;;;;;;;;;5002566;28;20096;-57
2024/03/22 00:31:08;;;;;;;29.65;16.50;;;;;;;;;;5007811;28;20413;-56
2024/03/22 00:33:35;;;;;;;25.08;14.98;;;;;;;;;;5011085;28;20145;-58
2024/03/22 00:36:03;;;;;;;30.10;17.70;;;;;;;;;;5013714;28;20042;-59
2024/03/22 00:38:30;;;;;;;25.80;15.55;;;;;;;;;;5013709;28;20046;-57
2024/03/22 00:40:56;;;;;;;27.98;15.35;;;;;;;;;;5003464;28;20058;-55
2024/03/22 00:43:23;;;;;;;28.80;15.45;;;;;;;;;;5008876;28;20060;-55
2024/03/22 00:45:49;;;;;;;24.38;15.27;;;;;;;;;;5009916;28;20042;-58
2024/03/22 00:48:16;;;;;;;26.73;14.82;;;;;;;;;;5003087;28;20053;-56
2024/03/22 00:50:42;;;;;;;27.80;15.13;;;;;;;;;;5006742;28;20096;-58
2024/03/22 00:53:11;;;;;;;28.40;16.10;;;;;;;;;;4999703;28;20459;-58
2024/03/22 00:55:37;;;;;;;25.50;14.95;;;;;;;;;;5003891;28;20449;-58
2024/03/22 00:58:04;;;;;;;26.98;16.08;;;;;;;;;;5007758;28;20056;-55
2024/03/22 01:00:30;;;;;;;25.90;15.40;;;;;;;;;;4999479;28;20046;-51
2024/03/22 01:02:58;;;;;;;25.33;15.10;;;;;;;;;;5006163;28;20131;-55
2024/03/22 01:05:24;;;;;;;23.05;14.23;;;;;;;;;;5008837;28;20508;-57
2024/03/22 01:07:51;;;;;;;24.88;14.02;;;;;;;;;;5001437;28;20050;-55
2024/03/22 01:10:19;;;;;;;23.02;14.65;;;;;;;;;;5001253;28;20456;-53
2024/03/22 01:12:46;;;;;;;29.88;15.95;;;;;;;;;;5001665;28;20054;-53
2024/03/22 01:15:12;;;;;;;25.40;15.13;;;;;;;;;;5010653;28;20050;-53
2024/03/22 01:17:39;;;;;;;23.73;14.70;;;;;;;;;;5012360;28;20069;-57
2024/03/22 01:20:06;;;;;;;27.38;15.95;;;;;;;;;;5009721;28;20054;-51
2024/03/22 01:22:33;;;;;;;25.45;14.05;;;;;;;;;;5010364;28;20053;-53
2024/03/22 01:24:59;;;;;;;29.08;16.83;;;;;;;;;;5012526;28;20061;-57
2024/03/22 01:27:28;;;;;;;24.70;14.43;;;;;;;;;;5007086;28;20042;-58
2024/03/22 01:29:54;;;;;;;22.55;13.55;;;;;;;;;;5006100;28;20054;-57
2024/03/22 01:32:21;;;;;;;21.17;12.57;;;;;;;;;;5011297;28;20088;-57
2024/03/22 01:34:47;;;;;;;26.42;14.68;;;;;;;;;;5010698;28;20068;-55
2024/03/22 01:37:14;;;;;;;22.55;13.48;;;;;;;;;;5011489;28;20050;-53
2024/03/22 01:39:40;;;;;;;20.83;12.63;;;;;;;;;;5011943;28;20104;-54
2024/03/22 01:42:07;;;;;;;22.63;12.88;;;;;;;;;;5027662;28;20536;-54
2024/03/22 01:44:34;;;;;;;22.25;12.57;;;;;;;;;;5007928;28;20084;-51
2024/03/22 01:47:02;;;;;;;24.08;12.55;;;;;;;;;;5011851;28;20112;-55
2024/03/22 01:49:28;;;;;;;20.63;11.70;;;;;;;;;;5005432;28;20428;-57
2024/03/22 01:51:55;;;;;;;18.52;11.40;;;;;;;;;;5001470;28;20482;-53
2024/03/22 01:54:21;;;;;;;19.20;11.77;;;;;;;;;;5002828;28;20054;-59
2024/03/22 01:56:49;;;;;;;19.33;10.98;;;;;;;;;;5027200;28;20064;-54
2024/03/22 01:59:15;;;;;;;19.33;11.43;;;;;;;;;;5003185;28;20061;-56
2024/03/22 02:01:44;;;;;;;20.02;11.27;;;;;;;;;;5019269;28;20081;-56
2024/03/22 02:04:10;;;;;;;21.85;11.95;;;;;;;;;;5007866;28;20676;-53
2024/03/22 02:06:37;;;;;;;18.67;11.15;;;;;;;;;;5011136;28;20141;-53
2024/03/22 02:09:04;;;;;;;16.33;11.35;;;;;;;;;;5000010;28;20064;-56
2024/03/22 02:11:32;;;;;;;21.25;12.20;;;;;;;;;;4999596;28;20116;-54
2024/03/22 02:13:58;;;;;;;25.55;15.52;;;;;;;;;;5001315;28;20050;-55
2024/03/22 02:16:25;;;;;;;28.38;16.02;;;;;;;;;;5008691;28;20073;-57
2024/03/22 02:18:52;;;;;;;26.15;14.73;;;;;;;;;;5004857;28;20050;-57
2024/03/22 02:21:19;;;;;;;24.00;14.20;;;;;;;;;;5021223;28;20056;-57
2024/03/22 02:23:46;;;;;;;23.55;13.50;;;;;;;;;;5014744;28;20060;-58
2024/03/22 02:26:13;;;;;;;24.30;14.23;;;;;;;;;;5030231;28;20045;-54
2024/03/22 02:28:39;;;;;;;26.05;14.82;;;;;;;;;;5030350;28;20439;-58
2024/03/22 02:31:07;;;;;;;24.92;13.68;;;;;;;;;;5022579;28;20068;-58
2024/03/22 02:33:33;;;;;;;25.10;14.65;;;;;;;;;;5029110;28;20058;-55
2024/03/22 02:36:00;;;;;;;25.10;15.85;;;;;;;;;;5021109;28;20054;-58
2024/03/22 02:38:26;;;;;;;25.23;14.60;;;;;;;;;;5007635;28;20064;-59
2024/03/22 02:40:55;;;;;;;25.73;15.65;;;;;;;;;;5001939;28;20493;-57
2024/03/22 02:43:21;;;;;;;25.33;15.10;;;;;;;;;;5028917;28;20054;-55
2024/03/22 02:45:49;;;;;;;25.50;15.35;;;;;;;;;;5022737;28;20133;-56
2024/03/22 02:48:15;;;;;;;27.63;15.65;;;;;;;;;;5033385;28;20473;-57
2024/03/22 02:50:43;;;;;;;28.23;15.68;;;;;;;;;;5010173;28;20050;-57
2024/03/22 02:53:09;;;;;;;27.83;15.93;;;;;;;;;;5006074;28;20530;-58
2024/03/22 02:55:39;;;;;;;26.73;14.70;;;;;;;;;;5006138;28;20049;-59
2024/03/22 02:58:07;;;;;;;27.92;16.45;;;;;;;;;;5006039;28;20124;-58
2024/03/22 03:00:38;;;;;;;30.83;17.30;;;;;;;;;;5014239;28;20054;-58
2024/03/22 03:03:04;;;;;;;29.25;16.33;;;;;;;;;;5000800;28;20088;-58
2024/03/22 03:05:31;;;;;;;26.38;15.38;;;;;;;;;;5008501;28;20104;-57
2024/03/22 03:07:58;;;;;;;27.50;16.17;;;;;;;;;;5030654;28;20053;-56
2024/03/22 03:10:24;;;;;;;28.38;16.67;;;;;;;;;;5034136;28;20521;-57
2024/03/22 03:12:50;;;;;;;24.42;15.05;;;;;;;;;;5024114;28;20136;-56
2024/03/22 03:15:19;;;;;;;27.90;16.80;;;;;;;;;;5022296;28;20217;-54
2024/03/22 03:17:46;;;;;;;25.83;14.20;;;;;;;;;;5006245;28;20049;-56
2024/03/22 03:20:13;;;;;;;26.27;15.07;;;;;;;;;;5024483;28;20047;-56
2024/03/22 03:22:40;;;;;;;23.38;13.65;;;;;;;;;;5030812;28;20407;-55
2024/03/22 03:25:07;;;;;;;26.85;16.35;;;;;;;;;;5019092;28;20070;-57
2024/03/22 03:27:35;;;;;;;25.88;13.52;;;;;;;;;;5025286;28;20053;-54
2024/03/22 03:30:02;;;;;;;26.08;15.13;;;;;;;;;;5029717;28;20046;-55
2024/03/22 03:32:30;;;;;;;26.70;14.70;;;;;;;;;;5031342;28;20463;-58
2024/03/22 03:34:56;;;;;;;24.38;14.43;;;;;;;;;;5006733;28;20050;-57
2024/03/22 03:37:23;;;;;;;26.48;14.18;;;;;;;;;;5025036;28;20276;-58
2024/03/22 03:39:49;;;;;;;26.05;14.13;;;;;;;;;;5023302;28;20125;-58
2024/03/22 03:42:16;;;;;;;27.48;14.80;;;;;;;;;;5012925;28;20133;-58
2024/03/22 03:44:42;;;;;;;28.70;15.18;;;;;;;;;;5013304;28;20053;-58
2024/03/22 03:47:09;;;;;;;26.30;16.02;;;;;;;;;;5006364;28;20053;-57
2024/03/22 03:49:36;;;;;;;29.85;15.45;;;;;;;;;;5024902;28;20050;-57
2024/03/22 03:52:04;;;;;;;27.83;16.13;;;;;;;;;;5004758;28;20070;-59
2024/03/22 03:54:30;;;;;;;24.73;14.68;;;;;;;;;;5013135;28;20104;-55
2024/03/22 03:56:57;;;;;;;25.35;14.52;;;;;;;;;;5001515;28;20489;-55
2024/03/22 03:59:23;;;;;;;22.67;12.88;;;;;;;;;;5013733;28;20057;-55
2024/03/22 04:01:50;;;;;;;24.00;12.85;;;;;;;;;;5002034;28;20054;-56
2024/03/22 04:04:15;;;;;;;22.38;12.60;;;;;;;;;;5020743;28;20049;-58
2024/03/22 04:06:45;;;;;;;25.77;13.05;;;;;;;;;;5008427;28;20126;-57
2024/03/22 04:09:11;;;;;;;21.10;12.30;;;;;;;;;;5002826;28;20049;-53
2024/03/22 04:11:38;;;;;;;20.88;12.18;;;;;;;;;;5009287;28;20057;-54
2024/03/22 04:14:05;;;;;;;20.27;11.77;;;;;;;;;;5020463;28;20101;-56
2024/03/22 04:16:31;;;;;;;22.13;12.55;;;;;;;;;;5024508;28;20080;-57
2024/03/22 04:18:57;;;;;;;22.55;12.05;;;;;;;;;;5012679;28;20477;-53
2024/03/22 04:21:24;;;;;;;21.63;13.25;;;;;;;;;;5012389;28;20060;-57
2024/03/22 04:23:52;;;;;;;21.10;12.82;;;;;;;;;;5003059;28;20267;-58
2024/03/22 04:26:20;;;;;;;21.70;12.55;;;;;;;;;;5000873;28;20046;-58
2024/03/22 04:28:46;;;;;;;21.98;13.60;;;;;;;;;;5001504;28;20058;-56
2024/03/22 04:31:14;;;;;;;21.25;13.57;;;;;;;;;;5013789;28;20108;-57
2024/03/22 04:33:40;;;;;;;23.55;13.10;;;;;;;;;;5020237;28;20544;-57
2024/03/22 04:36:09;;;;;;;22.30;13.30;;;;;;;;;;5023601;28;20049;-50
2024/03/22 04:38:37;;;;;;;22.52;13.52;;;;;;;;;;5009289;28;20046;-55
2024/03/22 04:41:06;;;;;;;22.65;12.85;;;;;;;;;;5030692;28;20058;-56
2024/03/22 04:43:33;;;;;;;22.80;13.95;;;;;;;;;;5031422;28;20132;-58
2024/03/22 04:45:59;;;;;;;24.55;13.95;;;;;;;;;;5021576;28;20441;-54
2024/03/22 04:48:26;;;;;;;23.05;13.63;;;;;;;;;;5004146;28;20062;-53
2024/03/22 04:50:52;;;;;;;24.58;14.48;;;;;;;;;;5005244;28;20529;-55
2024/03/22 04:53:20;;;;;;;23.98;14.77;;;;;;;;;;5026476;28;20046;-58
2024/03/22 04:55:47;;;;;;;28.67;16.23;;;;;;;;;;5002691;28;20116;-56
2024/03/22 04:58:16;;;;;;;26.33;15.40;;;;;;;;;;5019818;28;20461;-56
2024/03/22 05:00:43;;;;;;;29.95;15.75;;;;;;;;;;5020210;28;20054;-55
2024/03/22 05:03:10;;;;;;;31.70;17.05;;;;;;;;;;4999279;28;20049;-52
2024/03/22 05:05:37;;;;;;;28.27;16.30;;;;;;;;;;5023778;28;20140;-56
2024/03/22 05:08:05;;;;;;;25.42;15.65;;;;;;;;;;5018758;28;20104;-57
2024/03/22 05:10:32;;;;;;;28.25;17.20;;;;;;;;;;5004908;28;20452;-56
2024/03/22 05:12:59;;;;;;;29.63;15.63;;;;;;;;;;5001809;28;20053;-57
2024/03/22 05:15:26;;;;;;;28.27;16.10;;;;;;;;;;5003658;28;20068;-57
2024/03/22 05:17:54;;;;;;;27.65;16.30;;;;;;;;;;5002041;28;20081;-58
2024/03/22 05:20:20;;;;;;;26.15;15.25;;;;;;;;;;5010195;28;20060;-56
2024/03/22 05:22:48;;;;;;;25.58;15.20;;;;;;;;;;5030485;28;20075;-58
2024/03/22 05:25:15;;;;;;;25.65;15.45;;;;;;;;;;5010394;28;20406;-58
2024/03/22 05:27:42;;;;;;;23.52;13.57;;;;;;;;;;5019351;28;20053;-58
2024/03/22 05:30:09;;;;;;;26.80;14.55;;;;;;;;;;5017551;28;20049;-53
2024/03/22 05:32:38;;;;;;;24.15;13.63;;;;;;;;;;5016846;28;20068;-53
2024/03/22 05:35:05;;;;;;;25.10;14.27;;;;;;;;;;5024124;28;20054;-56
2024/03/22 05:37:33;;;;;;;24.20;13.93;;;;;;;;;;5020779;28;20128;-55
2024/03/22 05:39:59;;;;;;;27.67;14.43;;;;;;;;;;5024917;28;20152;-58
2024/03/22 05:42:26;;;;;;;23.90;14.18;;;;;;;;;;5014369;28;20132;-58
2024/03/22 05:44:52;;;;;;;26.13;14.20;;;;;;;;;;5019923;28;20056;-56
2024/03/22 05:47:20;;;;;;;26.25;14.82;;;;;;;;;;5025784;28;20133;-55
2024/03/22 05:49:47;;;;;;;26.95;14.73;;;;;;;;;;5025058;28;20140;-58
2024/03/22 05:52:15;;;;;;;24.60;13.90;;;;;;;;;;5023059;28;20046;-56
2024/03/22 05:54:41;;;;;;;25.00;14.43;;;;;;;;;;5011179;28;20050;-59
2024/03/22 05:57:09;;;;;;;25.95;15.25;;;;;;;;;;5024226;28;20041;-57
2024/03/22 05:59:37;;;;;;;24.08;15.05;;;;;;;;;;5015614;28;20465;-57
2024/03/22 06:02:06;;;;;;;26.58;14.07;;;;;;;;;;5008521;28;20066;-58
2024/03/22 06:04:33;;;;;;;24.02;13.15;;;;;;;;;;5008109;28;20107;-58
2024/03/22 06:07:04;;;;;;;21.80;12.55;;;;;;;;;;5024450;28;20046;-57
2024/03/22 06:09:36;;;;;;;22.67;13.32;;;;;;;;;;5011705;28;20565;-58
2024/03/22 06:12:04;;;;;;;23.08;13.00;;;;;;;;;;5011096;28;20053;-57
2024/03/22 06:14:30;;;;;;;18.83;11.88;;;;;;;;;;5005075;28;20085;-55
2024/03/22 06:16:57;;;;;;;24.08;14.07;;;;;;;;;;5001720;28;20077;-58
2024/03/22 06:19:24;;;;;;;25.52;13.95;;;;;;;;;;5002933;28;20076;-58
2024/03/22 06:21:51;;;;;;;21.33;13.13;;;;;;;;;;5015617;28;20619;-57
2024/03/22 06:24:18;;;;;;;26.00;13.38;;;;;;;;;;5022695;28;20137;-57
2024/03/22 06:26:45;;;;;;;24.25;13.98;;;;;;;;;;5003218;28;20085;-55
2024/03/22 06:29:12;;;;;;;24.95;13.07;;;;;;;;;;5023998;28;20141;-58
2024/03/22 06:31:39;;;;;;;23.98;14.55;;;;;;;;;;5012460;28;20052;-57
2024/03/22 06:34:05;;;;;;;23.48;13.18;;;;;;;;;;5011403;28;20057;-59
2024/03/22 06:36:33;;;;;;;22.55;13.85;;;;;;;;;;5026102;28;20076;-52
2024/03/22 06:38:59;;;;;;;19.77;12.48;;;;;;;;;;5003589;28;20476;-58
2024/03/22 06:41:28;;;;;;;21.92;12.30;;;;;;;;;;5008018;28;20432;-59
2024/03/22 06:43:54;;;;;;;20.15;12.38;;;;;;;;;;5023822;28;20052;-59
2024/03/22 06:46:21;;;;;;;20.25;12.13;;;;;;;;;;5005667;28;20054;-56
2024/03/22 06:48:48;;;;;;;24.25;13.02;;;;;;;;;;5000152;28;20403;-58
2024/03/22 06:51:15;;;;;;;22.27;13.35;;;;;;;;;;5000327;28;20160;-58
2024/03/22 06:53:40;;;;;;;22.63;12.70;;;;;;;;;;5006517;28;20062;-57
2024/03/22 06:56:08;;;;;;;20.75;12.43;;;;;;;;;;5020581;28;20046;-59
2024/03/22 06:58:37;;;;;;;18.38;11.77;;;;;;;;;;5001131;28;20069;-57
2024/03/22 07:01:03;;;;;;;19.90;11.88;;;;;;;;;;5008869;28;20104;-57
2024/03/22 07:03:30;;;;;;;18.90;11.35;;;;;;;;;;5011508;28;20522;-57
2024/03/22 07:05:57;;;;;;;21.95;12.63;;;;;;;;;;5027371;28;20085;-57
2024/03/22 07:08:24;;;;;;;19.60;11.18;;;;;;;;;;5028772;28;20059;-57
2024/03/22 07:10:50;;;;;;;18.88;11.45;;;;;;;;;;5016921;28;20049;-57
2024/03/22 07:13:18;;;;;;;21.85;12.52;;;;;;;;;;5017303;28;20052;-60
2024/03/22 07:15:47;;;;;;;22.65;12.75;;;;;;;;;;5006118;28;20363;-57
2024/03/22 07:18:14;;;;;;;23.05;12.93;;;;;;;;;;5025867;28;20390;-57
2024/03/22 07:20:40;;;;;;;19.05;11.55;;;;;;;;;;5028178;28;20519;-58
2024/03/22 07:23:07;;;;;;;18.83;11.52;;;;;;;;;;5024376;28;20056;-58
2024/03/22 07:25:33;;;;;;;20.80;11.85;;;;;;;;;;5027490;28;20049;-58
2024/03/22 07:28:00;;;;;;;16.52;10.48;;;;;;;;;;5025141;28;20056;-57
2024/03/22 07:30:26;;;;;;;15.77;10.23;;;;;;;;;;5027072;28;20420;-59
2024/03/22 07:32:54;;;;;;;18.52;10.48;;;;;;;;;;5021694;28;20056;-59
2024/03/22 07:35:20;;;;;;;17.67;9.20;;;;;;;;;;5020562;28;20049;-63
2024/03/22 07:37:47;;;;;;;15.85;10.43;;;;;;;;;;5008617;28;20046;-60
2024/03/22 07:40:13;;;;;;;17.67;10.75;;;;;;;;;;5000620;28;22231;-60
2024/03/22 07:42:40;;;;;;;20.02;10.02;;;;;;;;;;5008145;28;20053;-57
2024/03/22 07:45:06;;;;;;;20.10;10.60;;;;;;;;;;5012652;28;20046;-57
2024/03/22 07:47:34;;;;;;;18.35;11.48;;;;;;;;;;5016147;28;20053;-55
2024/03/22 07:50:01;;;;;;;19.27;12.10;;;;;;;;;;5022112;28;20132;-56
2024/03/22 07:52:28;;;;;;;17.85;11.18;;;;;;;;;;5023321;28;20053;-58
2024/03/22 07:54:54;;;;;;;18.73;11.93;;;;;;;;;;5012478;28;20047;-59
2024/03/22 07:57:22;;;;;;;20.30;12.27;;;;;;;;;;5004627;28;20436;-57
2024/03/22 07:59:48;;;;;;;19.17;11.38;;;;;;;;;;5007761;28;20049;-58
2024/03/22 08:02:15;;;;;;;19.98;11.18;;;;;;;;;;5018774;28;20080;-56
2024/03/22 08:04:41;;;;;;;20.33;11.60;;;;;;;;;;5019108;28;20046;-56
2024/03/22 08:07:10;;;;;;;19.60;11.77;;;;;;;;;;5022638;28;20056;-55
2024/03/22 08:09:35;;;;;;;18.17;11.05;;;;;;;;;;5013138;28;20046;-58
2024/03/22 08:12:02;;;;;;;18.33;11.32;;;;;;;;;;4998593;28;20049;-57
2024/03/22 08:14:28;;;;;;;19.83;10.85;;;;;;;;;;5016447;28;20045;-55
2024/03/22 08:16:55;;;;;;;18.15;11.65;;;;;;;;;;5018494;28;20069;-58
2024/03/22 08:19:21;;;;;;;18.38;10.48;;;;;;;;;;5009765;28;20053;-58
2024/03/22 08:21:48;;;;;;;19.33;11.10;;;;;;;;;;5001386;28;20061;-57
2024/03/22 08:24:17;;;;;;;15.25;10.07;;;;;;;;;;5008666;28;20081;-57
2024/03/22 08:26:46;;;;;;;15.50;10.48;;;;;;;;;;5010969;28;20049;-58
2024/03/22 08:29:12;;;;;;;18.08;10.38;;;;;;;;;;5007302;28;22613;-59
2024/03/22 08:31:39;;;;;;;12.30;9.57;;;;;;;;;;5008274;28;20078;-57
2024/03/22 08:34:05;;;;;;;13.13;9.70;;;;;;;;;;5009186;28;20479;-58
2024/03/22 08:36:33;;;;;;;14.65;9.30;;;;;;;;;;5013601;28;20128;-58
2024/03/22 08:38:59;;;;;;;11.13;8.55;;;;;;;;;;5019995;28;20132;-59
2024/03/22 08:41:27;;;;;;;14.80;8.73;;;;;;;;;;5012970;28;20125;-59
2024/03/22 08:43:53;;;;;;;13.73;8.85;;;;;;;;;;5005912;28;20050;-56
2024/03/22 08:46:23;;;;;;;12.45;8.57;;;;;;;;;;5002108;28;20133;-59
2024/03/22 08:48:49;;;;;;;14.77;9.27;;;;;;;;;;5006873;28;20118;-56
2024/03/22 08:51:16;;;;;;;14.55;9.35;;;;;;;;;;5003599;28;20608;-57
2024/03/22 08:53:42;;;;;;;13.07;9.13;;;;;;;;;;5010373;28;20417;-58
2024/03/22 08:56:09;;;;;;;16.40;9.68;;;;;;;;;;5003927;28;20052;-58
2024/03/22 08:58:36;;;;;;;13.77;9.70;;;;;;;;;;5007436;28;20124;-56
2024/03/22 09:01:03;;;;;;;15.27;9.10;;;;;;;;;;5012579;28;20054;-59
2024/03/22 09:03:30;;;;;;;13.65;9.27;;;;;;;;;;5016040;28;20512;-58
2024/03/22 09:05:57;;;;;;;13.50;9.32;;;;;;;;;;5015879;28;20537;-58
2024/03/22 09:08:23;;;;;;;14.75;9.35;;;;;;;;;;5017918;28;20073;-58
2024/03/22 09:10:50;;;;;;;14.20;9.48;;;;;;;;;;5020822;28;20623;-57
2024/03/22 09:13:16;;;;;;;15.95;9.43;;;;;;;;;;5022387;28;20045;-59
2024/03/22 09:15:44;;;;;;;13.52;9.52;;;;;;;;;;5015880;28;20115;-55
2024/03/22 09:18:10;;;;;;;14.02;8.85;;;;;;;;;;5015780;28;20121;-55
2024/03/22 09:20:38;;;;;;;11.32;8.23;;;;;;;;;;5020144;28;20140;-58
2024/03/22 09:23:04;;;;;;;12.68;9.05;;;;;;;;;;5022342;28;20052;-56
2024/03/22 09:25:31;;;;;;;13.45;8.65;;;;;;;;;;5020289;28;20053;-54
2024/03/22 09:27:56;;;;;;;12.40;8.38;;;;;;;;;;5017594;28;20046;-57
2024/03/22 09:30:24;;;;;;;11.95;7.35;;;;;;;;;;5022301;28;20536;-52
2024/03/22 09:32:52;;;;;;;10.63;7.38;;;;;;;;;;5020329;28;20073;-57
2024/03/22 09:35:18;;;;;;;12.27;7.35;;;;;;;;;;5019222;28;20053;-57
2024/03/22 09:37:44;;;;;;;13.05;7.13;;;;;;;;;;5011542;28;20042;-56
2024/03/22 09:40:12;;;;;;;12.40;7.72;;;;;;;;;;5023613;28;20045;-56
2024/03/22 09:42:40;;;;;;;9.35;6.95;;;;;;;;;;5015912;28;20056;-57
2024/03/22 09:45:10;;;;;;;10.20;6.47;;;;;;;;;;5023468;28;20049;-53
2024/03/22 09:47:36;;;;;;;10.35;6.82;;;;;;;;;;5018160;28;20051;-56
2024/03/22 09:50:08;;;;;;;13.45;7.53;;;;;;;;;;5022427;28;20052;-57
2024/03/22 09:52:37;;;;;;;10.18;6.60;;;;;;;;;;5018786;28;20489;-56
2024/03/22 09:55:06;;;;;;;10.73;6.80;;;;;;;;;;5022463;28;20087;-58
2024/03/22 09:57:35;;;;;;;12.80;7.18;;;;;;;;;;5022099;28;20160;-57
2024/03/22 10:00:03;;;;;;;12.85;6.75;;;;;;;;;;5022713;28;20046;-57
2024/03/22 10:02:30;;;;;;;11.40;7.47;;;;;;;;;;5019056;28;20073;-58
2024/03/22 10:04:58;;;;;;;11.20;8.60;;;;;;;;;;5020692;28;20045;-58
2024/03/22 10:07:25;;;;;;;10.52;6.28;;;;;;;;;;5022877;28;20056;-58
2024/03/22 10:09:53;;;;;;;10.48;6.88;;;;;;;;;;5021721;28;20082;-58
2024/03/22 10:12:20;;;;;;;11.70;7.18;;;;;;;;;;5020128;28;20125;-57
2024/03/22 10:14:47;;;;;;;12.00;8.10;;;;;;;;;;5012109;28;20045;-59
2024/03/22 10:17:13;;;;;;;10.10;7.60;;;;;;;;;;5024528;28;20050;-57
2024/03/22 10:19:40;;;;;;;10.43;6.85;;;;;;;;;;5021220;28;20042;-58
2024/03/22 10:22:07;;;;;;;10.40;7.03;;;;;;;;;;5024112;28;20416;-61
2024/03/22 10:24:35;;;;;;;11.27;7.20;;;;;;;;;;5013628;28;20059;-59
2024/03/22 10:27:01;;;;;;;10.60;6.72;;;;;;;;;;5023614;28;20443;-56
2024/03/22 10:29:29;;;;;;;13.60;7.55;;;;;;;;;;5023427;28;20500;-57
2024/03/22 10:31:55;;;;;;;11.50;6.95;;;;;;;;;;5022106;28;20050;-59
2024/03/22 10:34:23;;;;;;;11.25;7.75;;;;;;;;;;5023771;28;20694;-56
2024/03/22 10:36:49;;;;;;;11.30;7.13;;;;;;;;;;5023950;28;20053;-54
2024/03/22 10:39:18;;;;;;;12.45;6.95;;;;;;;;;;5028260;28;20048;-57
2024/03/22 10:41:46;;;;;;;11.43;7.20;;;;;;;;;;5019904;28;20053;-56
2024/03/22 10:44:13;;;;;;;10.95;6.90;;;;;;;;;;5027696;28;20459;-54
2024/03/22 10:46:45;;;;;;;8.82;6.22;;;;;;;;;;5025461;28;20524;-57
2024/03/22 10:49:16;;;;;;;10.60;6.47;;;;;;;;;;5016152;28;20070;-56
2024/03/22 10:51:46;;;;;;;10.45;7.15;;;;;;;;;;5021928;28;20042;-57
2024/03/22 10:54:18;;;;;;;9.73;6.88;;;;;;;;;;5016110;28;20484;-52
2024/03/22 10:56:48;;;;;;;10.48;7.20;;;;;;;;;;5024737;28;20050;-55
2024/03/22 10:59:14;;;;;;;9.15;6.22;;;;;;;;;;5028196;28;20439;-53
2024/03/22 11:01:46;;;;;;;11.85;6.80;;;;;;;;;;5022182;28;20064;-52
2024/03/22 11:04:12;;;;;;;11.20;7.32;;;;;;;;;;5009267;28;20043;-53
2024/03/22 11:06:40;;;;;;;12.18;7.30;;;;;;;;;;5023302;28;20519;-53
2024/03/22 11:09:06;;;;;;;10.50;6.72;;;;;;;;;;5020429;28;20056;-57
2024/03/22 11:11:37;;;;;;;10.02;6.47;;;;;;;;;;5005169;28;20053;-55
2024/03/22 11:14:05;;;;;;;9.07;6.30;;;;;;;;;;5004949;28;20045;-55
2024/03/22 11:16:32;;;;;;;9.82;6.75;;;;;;;;;;5015022;28;20060;-57
2024/03/22 11:18:58;;;;;;;11.35;7.85;;;;;;;;;;5020157;28;20457;-53
2024/03/22 11:21:25;;;;;;;10.23;6.78;;;;;;;;;;5019358;28;20046;-56
2024/03/22 11:23:51;;;;;;;11.05;7.32;;;;;;;;;;5013793;28;20077;-52
2024/03/22 11:26:18;;;;;;;10.32;7.43;;;;;;;;;;5016647;28;20528;-57
2024/03/22 11:28:43;;;;;;;10.10;7.18;;;;;;;;;;5016489;28;20058;-57
2024/03/22 11:31:12;;;;;;;11.98;7.55;;;;;;;;;;5016051;28;20050;-57
2024/03/22 11:33:39;;;;;;;12.27;8.57;;;;;;;;;;5008937;28;20058;-56
2024/03/22 11:36:06;;;;;;;11.57;9.00;;;;;;;;;;5019270;28;20046;-55
2024/03/22 11:38:32;;;;;;;11.30;7.15;;;;;;;;;;5018003;28;20229;-58
2024/03/22 11:41:02;;;;;;;10.43;7.45;;;;;;;;;;5010849;28;20151;-55
2024/03/22 11:43:29;;;;;;;10.77;7.53;;;;;;;;;;5011946;28;20046;-58
2024/03/22 11:45:56;;;;;;;12.10;6.80;;;;;;;;;;5008272;28;20056;-53
2024/03/22 11:48:24;;;;;;;9.45;6.70;;;;;;;;;;5003808;28;20037;-57
2024/03/22 11:50:50;;;;;;;10.73;7.15;;;;;;;;;;5016271;28;20062;-56
2024/03/22 11:53:17;;;;;;;11.43;6.93;;;;;;;;;;5011257;28;20412;-57
2024/03/22 11:55:44;;;;;;;9.93;7.47;;;;;;;;;;5004068;28;20115;-57
2024/03/22 11:58:10;;;;;;;11.15;6.80;;;;;;;;;;5001822;28;20128;-58
2024/03/22 12:00:37;;;;;;;9.15;6.45;;;;;;;;;;5017358;28;20057;-56
2024/03/22 12:03:05;;;;;;;9.98;7.28;;;;;;;;;;5014297;28;20064;-55
2024/03/22 12:05:34;;;;;;;11.93;7.07;;;;;;;;;;5009228;28;20046;-57
2024/03/22 12:07:59;;;;;;;10.18;6.55;;;;;;;;;;5013313;28;20050;-55
2024/03/22 12:10:26;;;;;;;9.85;7.00;;;;;;;;;;5017597;28;20050;-56
2024/03/22 12:12:53;;;;;;;8.77;6.68;;;;;;;;;;5017593;28;20064;-56
2024/03/22 12:15:21;;;;;;;10.45;7.00;;;;;;;;;;5012533;28;20073;-53
2024/03/22 12:17:47;;;;;;;9.55;6.30;;;;;;;;;;5018172;28;20154;-56
2024/03/22 12:20:14;;;;;;;11.07;6.43;;;;;;;;;;5012913;28;20129;-55
2024/03/22 12:22:42;;;;;;;9.57;6.30;;;;;;;;;;5011309;28;20157;-57
2024/03/22 12:25:11;;;;;;;8.52;5.72;;;;;;;;;;5013492;28;20042;-56
2024/03/22 12:27:37;;;;;;;11.20;6.78;;;;;;;;;;5019750;28;20107;-55
2024/03/22 12:30:06;;;;;;;10.88;6.20;;;;;;;;;;5008425;28;20086;-59
2024/03/22 12:32:32;;;;;;;8.63;5.95;;;;;;;;;;5014620;28;20080;-58
2024/03/22 12:34:58;;;;;;;9.77;6.32;;;;;;;;;;5021147;28;20081;-59
2024/03/22 12:37:24;;;;;;;11.32;6.88;;;;;;;;;;5021049;28;20436;-55
2024/03/22 12:39:53;;;;;;;8.75;5.90;;;;;;;;;;5019593;28;20046;-56
2024/03/22 12:42:19;;;;;;;7.90;5.72;;;;;;;;;;5016922;28;20163;-55
2024/03/22 12:44:46;;;;;;;8.73;6.40;;;;;;;;;;5015353;28;20086;-55
2024/03/22 12:47:12;;;;;;;10.45;5.82;;;;;;;;;;5026701;28;20110;-56
2024/03/22 12:49:38;;;;;;;8.00;6.72;;;;;;;;;;5019182;28;20053;-56
2024/03/22 12:52:05;;;;;;;8.85;5.85;;;;;;;;;;5010609;28;20054;-57
2024/03/22 12:54:32;;;;;;;8.75;6.40;;;;;;;;;;5006157;28;20085;-55
2024/03/22 12:56:59;;;;;;;10.32;6.00;;;;;;;;;;5013980;28;20049;-58
2024/03/22 12:59:26;;;;;;;7.88;5.78;;;;;;;;;;5008963;28;20125;-57
2024/03/22 13:01:53;;;;;;;6.72;5.00;;;;;;;;;;5012525;28;20045;-57
2024/03/22 13:04:20;;;;;;;8.95;5.60;;;;;;;;;;5017107;28;20453;-57
2024/03/22 13:06:46;;;;;;;9.15;5.97;;;;;;;;;;5016930;28;20045;-55
2024/03/22 13:09:13;;;;;;;9.70;6.55;;;;;;;;;;5015855;28;20045;-53
2024/03/22 13:11:40;;;;;;;7.70;6.10;;;;;;;;;;5019118;28;20065;-57
2024/03/22 13:14:09;;;;;;;7.57;5.50;;;;;;;;;;5017178;28;20093;-57
2024/03/22 13:16:35;;;;;;;8.30;6.07;;;;;;;;;;5015643;28;20066;-56
2024/03/22 13:19:01;;;;;;;6.55;5.40;;;;;;;;;;5013380;28;20054;-56
2024/03/22 13:21:28;;;;;;;7.88;4.78;;;;;;;;;;5010916;28;20057;-56
2024/03/22 13:23:54;;;;;;;8.32;5.55;;;;;;;;;;5011579;28;20046;-53
2024/03/22 13:26:20;;;;;;;8.68;5.55;;;;;;;;;;5001076;28;20054;-56
2024/03/22 13:28:47;;;;;;;7.38;4.50;;;;;;;;;;5011676;28;20057;-56
2024/03/22 13:31:15;;;;;;;6.78;5.00;;;;;;;;;;5003556;28;20096;-55
2024/03/22 13:33:42;;;;;;;7.68;4.88;;;;;;;;;;5006107;28;20050;-55
2024/03/22 13:36:08;;;;;;;8.20;4.68;;;;;;;;;;5002443;28;20041;-58
2024/03/22 13:38:35;;;;;;;8.07;4.93;;;;;;;;;;5012015;28;20050;-60
2024/03/22 13:41:03;;;;;;;7.53;5.00;;;;;;;;;;5016731;28;20048;-56
2024/03/22 13:43:30;;;;;;;10.30;5.97;;;;;;;;;;5014352;28;20477;-55
2024/03/22 13:45:56;;;;;;;10.27;6.55;;;;;;;;;;5018227;28;20065;-58
2024/03/22 13:48:26;;;;;;;21.60;12.68;;;;;;;;;;5011955;28;20077;-56
2024/03/22 13:50:53;;;;;;;9.82;7.40;;;;;;;;;;5010664;28;20052;-54
2024/03/22 13:53:21;;;;;;;11.75;6.15;;;;;;;;;;5010190;28;20046;-56
2024/03/22 13:55:47;;;;;;;7.10;5.60;;;;;;;;;;5005674;28;20053;-58
2024/03/22 13:58:14;;;;;;;8.00;5.75;;;;;;;;;;5016267;28;20057;-53
2024/03/22 14:00:40;;;;;;;6.68;5.07;;;;;;;;;;5011748;28;20104;-58
2024/03/22 14:03:07;;;;;;;8.73;4.60;;;;;;;;;;5010898;28;20049;-56
2024/03/22 14:05:34;;;;;;;7.93;4.55;;;;;;;;;;5011573;28;20417;-60
2024/03/22 14:08:03;;;;;;;7.28;4.55;;;;;;;;;;5011434;28;20046;-57
2024/03/22 14:10:31;;;;;;;6.75;4.60;;;;;;;;;;5011813;28;20095;-56
2024/03/22 14:12:58;;;;;;;7.20;4.43;;;;;;;;;;5015021;28;20128;-57
2024/03/22 14:15:25;;;;;;;7.32;4.70;;;;;;;;;;5015252;28;20137;-58
2024/03/22 14:17:52;;;;;;;7.43;4.38;;;;;;;;;;5015741;28;20579;-58
2024/03/22 14:20:18;;;;;;;7.32;4.65;;;;;;;;;;5020116;28;20428;-57
2024/03/22 14:22:47;;;;;;;6.75;4.50;;;;;;;;;;5016522;28;20120;-59